sensor_id;sensor_type;location;lat;lon;timestamp;temperature;humidity
33761;DHT22;20084;47.912;19.044;2022-11-14T00:00:11;5.90;99.90
33761;DHT22;20084;47.912;19.044;2022-11-14T00:02:37;5.90;99.90
33761;DHT22;20084;47.912;19.044;2022-11-14T00:05:04;6.00;99.90
33761;DHT22;20084;47.912;19.044;2022-11-14T00:07:32;6.00;99.90
33761;DHT22;20084;47.912;19.044;2022-11-14T00:09:58;6.00;99.90
33761;DHT22;20084;47.912;19.044;2022-11-14T00:12:23;5.90;99.90
33761;DHT22;20084;47.912;19.044;2022-11-14T00:14:49;5.90;99.90
33761;DHT22;20084;47.912;19.044;2022-11-14T00:17:16;6.00;99.90
33761;DHT22;20084;47.912;19.044;2022-11-14T00:19:41;6.00;99.90
33761;DHT22;20084;47.912;19.044;2022-11-14T00:22:07;6.00;99.90
33761;DHT22;20084;47.912;19.044;2022-11-14T00:24:32;6.10;99.90
33761;DHT22;20084;47.912;19.044;2022-11-14T00:26:58;6.10;99.90
33761;DHT22;20084;47.912;19.044;2022-11-14T00:29:23;6.10;99.90
33761;DHT22;20084;47.912;19.044;2022-11-14T00:31:49;6.00;99.90
33761;DHT22;20084;47.912;19.044;2022-11-14T00:34:14;6.00;99.90
33761;DHT22;20084;47.912;19.044;2022-11-14T00:36:40;6.00;99.90
33761;DHT22;20084;47.912;19.044;2022-11-14T00:39:06;6.00;99.90
33761;DHT22;20084;47.912;19.044;2022-11-14T00:41:31;6.00;99.90
33761;DHT22;20084;47.912;19.044;2022-11-14T00:43:57;6.10;99.90
33761;DHT22;20084;47.912;19.044;2022-11-14T00:46:22;6.10;99.90
33761;DHT22;20084;47.912;19.044;2022-11-14T00:48:48;6.10;99.90
33761;DHT22;20084;47.912;19.044;2022-11-14T00:51:13;6.20;99.90
33761;DHT22;20084;47.912;19.044;2022-11-14T00:53:39;6.20;99.90
33761;DHT22;20084;47.912;19.044;2022-11-14T00:56:05;6.20;99.90
33761;DHT22;20084;47.912;19.044;2022-11-14T00:58:30;6.30;99.90
33761;DHT22;20084;47.912;19.044;2022-11-14T01:00:57;6.30;99.90
33761;DHT22;20084;47.912;19.044;2022-11-14T01:03:22;6.30;99.90
33761;DHT22;20084;47.912;19.044;2022-11-14T01:05:50;6.30;99.90
33761;DHT22;20084;47.912;19.044;2022-11-14T01:08:17;6.40;99.90
33761;DHT22;20084;47.912;19.044;2022-11-14T01:10:45;6.40;99.90
33761;DHT22;20084;47.912;19.044;2022-11-14T01:13:12;6.40;99.90
33761;DHT22;20084;47.912;19.044;2022-11-14T01:15:40;6.50;99.90
33761;DHT22;20084;47.912;19.044;2022-11-14T01:18:06;6.50;99.90
33761;DHT22;20084;47.912;19.044;2022-11-14T01:20:32;6.50;99.90
33761;DHT22;20084;47.912;19.044;2022-11-14T01:22:57;6.50;99.90
33761;DHT22;20084;47.912;19.044;2022-11-14T01:25:24;6.50;99.90
33761;DHT22;20084;47.912;19.044;2022-11-14T01:27:50;6.50;99.90
33761;DHT22;20084;47.912;19.044;2022-11-14T01:30:15;6.50;99.90
33761;DHT22;20084;47.912;19.044;2022-11-14T01:32:41;6.50;99.90
33761;DHT22;20084;47.912;19.044;2022-11-14T01:35:07;6.50;99.90
33761;DHT22;20084;47.912;19.044;2022-11-14T01:37:32;6.50;99.90
33761;DHT22;20084;47.912;19.044;2022-11-14T01:39:58;6.60;99.90
33761;DHT22;20084;47.912;19.044;2022-11-14T01:42:23;6.50;99.90
33761;DHT22;20084;47.912;19.044;2022-11-14T01:44:51;6.60;99.90
33761;DHT22;20084;47.912;19.044;2022-11-14T01:47:26;6.60;99.90
33761;DHT22;20084;47.912;19.044;2022-11-14T01:49:56;6.50;99.90
33761;DHT22;20084;47.912;19.044;2022-11-14T01:54:56;6.50;99.90
33761;DHT22;20084;47.912;19.044;2022-11-14T01:57:27;6.50;99.90
33761;DHT22;20084;47.912;19.044;2022-11-14T01:59:55;6.50;99.90
33761;DHT22;20084;47.912;19.044;2022-11-14T02:02:24;6.60;99.90
33761;DHT22;20084;47.912;19.044;2022-11-14T02:04:56;6.60;99.90
33761;DHT22;20084;47.912;19.044;2022-11-14T02:07:26;6.60;99.90
33761;DHT22;20084;47.912;19.044;2022-11-14T02:09:52;6.60;99.90
33761;DHT22;20084;47.912;19.044;2022-11-14T02:12:18;6.60;99.90
33761;DHT22;20084;47.912;19.044;2022-11-14T02:14:46;6.60;99.90
33761;DHT22;20084;47.912;19.044;2022-11-14T02:17:13;6.60;99.90
33761;DHT22;20084;47.912;19.044;2022-11-14T02:19:52;6.60;99.90
33761;DHT22;20084;47.912;19.044;2022-11-14T02:22:18;6.70;99.90
33761;DHT22;20084;47.912;19.044;2022-11-14T02:24:43;6.70;99.90
33761;DHT22;20084;47.912;19.044;2022-11-14T02:27:11;6.70;99.90
33761;DHT22;20084;47.912;19.044;2022-11-14T02:29:37;6.70;99.90
33761;DHT22;20084;47.912;19.044;2022-11-14T02:32:03;6.70;99.90
33761;DHT22;20084;47.912;19.044;2022-11-14T02:34:29;6.70;99.90
33761;DHT22;20084;47.912;19.044;2022-11-14T02:36:54;6.70;99.90
33761;DHT22;20084;47.912;19.044;2022-11-14T02:39:20;6.70;99.90
33761;DHT22;20084;47.912;19.044;2022-11-14T02:41:46;6.70;99.90
33761;DHT22;20084;47.912;19.044;2022-11-14T02:44:11;6.60;99.90
33761;DHT22;20084;47.912;19.044;2022-11-14T02:46:37;6.60;99.90
33761;DHT22;20084;47.912;19.044;2022-11-14T02:49:02;6.50;99.90
33761;DHT22;20084;47.912;19.044;2022-11-14T02:51:28;6.50;99.90
33761;DHT22;20084;47.912;19.044;2022-11-14T02:53:54;6.40;99.90
33761;DHT22;20084;47.912;19.044;2022-11-14T02:56:19;6.40;99.90
33761;DHT22;20084;47.912;19.044;2022-11-14T02:58:45;6.40;99.90
33761;DHT22;20084;47.912;19.044;2022-11-14T03:01:10;6.40;99.90
33761;DHT22;20084;47.912;19.044;2022-11-14T03:03:36;6.40;99.90
33761;DHT22;20084;47.912;19.044;2022-11-14T03:06:03;6.30;99.90
33761;DHT22;20084;47.912;19.044;2022-11-14T03:08:29;6.30;99.90
33761;DHT22;20084;47.912;19.044;2022-11-14T03:10:55;6.30;99.90
33761;DHT22;20084;47.912;19.044;2022-11-14T03:13:21;6.40;99.90
33761;DHT22;20084;47.912;19.044;2022-11-14T03:15:47;6.40;99.90
33761;DHT22;20084;47.912;19.044;2022-11-14T03:18:12;6.40;99.90
33761;DHT22;20084;47.912;19.044;2022-11-14T03:20:39;6.40;99.90
33761;DHT22;20084;47.912;19.044;2022-11-14T03:23:05;6.40;99.90
33761;DHT22;20084;47.912;19.044;2022-11-14T03:25:30;6.40;99.90
33761;DHT22;20084;47.912;19.044;2022-11-14T03:27:56;6.40;99.90
33761;DHT22;20084;47.912;19.044;2022-11-14T03:30:22;6.40;99.90
33761;DHT22;20084;47.912;19.044;2022-11-14T03:32:47;6.40;99.90
33761;DHT22;20084;47.912;19.044;2022-11-14T03:35:13;6.40;99.90
33761;DHT22;20084;47.912;19.044;2022-11-14T03:37:38;6.30;99.90
33761;DHT22;20084;47.912;19.044;2022-11-14T03:40:04;6.30;99.90
33761;DHT22;20084;47.912;19.044;2022-11-14T03:42:34;6.40;99.90
33761;DHT22;20084;47.912;19.044;2022-11-14T03:45:00;6.30;99.90
33761;DHT22;20084;47.912;19.044;2022-11-14T03:47:25;6.30;99.90
33761;DHT22;20084;47.912;19.044;2022-11-14T03:49:51;6.20;99.90
33761;DHT22;20084;47.912;19.044;2022-11-14T03:52:16;6.10;99.90
33761;DHT22;20084;47.912;19.044;2022-11-14T03:54:42;6.10;99.90
33761;DHT22;20084;47.912;19.044;2022-11-14T03:57:07;6.10;99.90
33761;DHT22;20084;47.912;19.044;2022-11-14T03:59:33;6.10;99.90
33761;DHT22;20084;47.912;19.044;2022-11-14T04:01:59;6.10;99.90
33761;DHT22;20084;47.912;19.044;2022-11-14T04:04:24;6.10;99.90
33761;DHT22;20084;47.912;19.044;2022-11-14T04:06:50;6.10;99.90
33761;DHT22;20084;47.912;19.044;2022-11-14T04:09:15;6.10;99.90
33761;DHT22;20084;47.912;19.044;2022-11-14T04:11:41;6.10;99.90
33761;DHT22;20084;47.912;19.044;2022-11-14T04:14:06;6.10;99.90
33761;DHT22;20084;47.912;19.044;2022-11-14T04:16:32;6.10;99.90
33761;DHT22;20084;47.912;19.044;2022-11-14T04:18:57;6.10;99.90
33761;DHT22;20084;47.912;19.044;2022-11-14T04:21:23;6.20;99.90
33761;DHT22;20084;47.912;19.044;2022-11-14T04:23:49;6.20;99.90
33761;DHT22;20084;47.912;19.044;2022-11-14T04:26:14;6.20;99.90
33761;DHT22;20084;47.912;19.044;2022-11-14T04:28:40;6.20;99.90
33761;DHT22;20084;47.912;19.044;2022-11-14T04:31:05;6.10;99.90
33761;DHT22;20084;47.912;19.044;2022-11-14T04:33:31;6.10;99.90
33761;DHT22;20084;47.912;19.044;2022-11-14T04:35:56;6.10;99.90
33761;DHT22;20084;47.912;19.044;2022-11-14T04:38:22;6.20;99.90
33761;DHT22;20084;47.912;19.044;2022-11-14T04:40:49;6.10;99.90
33761;DHT22;20084;47.912;19.044;2022-11-14T04:43:16;6.00;99.90
33761;DHT22;20084;47.912;19.044;2022-11-14T04:45:45;6.00;99.90
33761;DHT22;20084;47.912;19.044;2022-11-14T04:48:11;6.00;99.90
33761;DHT22;20084;47.912;19.044;2022-11-14T04:50:37;5.90;99.90
33761;DHT22;20084;47.912;19.044;2022-11-14T04:53:03;6.00;99.90
33761;DHT22;20084;47.912;19.044;2022-11-14T04:55:29;6.00;99.90
33761;DHT22;20084;47.912;19.044;2022-11-14T04:57:56;5.90;99.90
33761;DHT22;20084;47.912;19.044;2022-11-14T05:00:23;5.90;99.90
33761;DHT22;20084;47.912;19.044;2022-11-14T05:02:48;5.90;99.90
33761;DHT22;20084;47.912;19.044;2022-11-14T05:05:14;5.80;99.90
33761;DHT22;20084;47.912;19.044;2022-11-14T05:07:40;5.80;99.90
33761;DHT22;20084;47.912;19.044;2022-11-14T05:10:07;5.80;99.90
33761;DHT22;20084;47.912;19.044;2022-11-14T05:12:33;5.80;99.90
33761;DHT22;20084;47.912;19.044;2022-11-14T05:14:58;5.80;99.90
33761;DHT22;20084;47.912;19.044;2022-11-14T05:17:24;5.90;99.90
33761;DHT22;20084;47.912;19.044;2022-11-14T05:19:50;5.80;99.90
33761;DHT22;20084;47.912;19.044;2022-11-14T05:22:15;5.80;99.90
33761;DHT22;20084;47.912;19.044;2022-11-14T05:24:41;5.80;99.90
33761;DHT22;20084;47.912;19.044;2022-11-14T05:27:06;5.80;99.90
33761;DHT22;20084;47.912;19.044;2022-11-14T05:29:32;5.80;99.90
33761;DHT22;20084;47.912;19.044;2022-11-14T05:31:58;5.80;99.90
33761;DHT22;20084;47.912;19.044;2022-11-14T05:34:25;5.80;99.90
33761;DHT22;20084;47.912;19.044;2022-11-14T05:36:50;5.80;99.90
33761;DHT22;20084;47.912;19.044;2022-11-14T05:39:16;5.90;99.90
33761;DHT22;20084;47.912;19.044;2022-11-14T05:41:41;5.80;99.90
33761;DHT22;20084;47.912;19.044;2022-11-14T05:44:08;5.70;99.90
33761;DHT22;20084;47.912;19.044;2022-11-14T05:46:33;5.70;99.90
33761;DHT22;20084;47.912;19.044;2022-11-14T05:48:59;5.70;99.90
33761;DHT22;20084;47.912;19.044;2022-11-14T05:51:24;5.70;99.90
33761;DHT22;20084;47.912;19.044;2022-11-14T05:53:50;5.70;99.90
33761;DHT22;20084;47.912;19.044;2022-11-14T05:56:16;5.70;99.90
33761;DHT22;20084;47.912;19.044;2022-11-14T05:58:41;5.60;99.90
33761;DHT22;20084;47.912;19.044;2022-11-14T06:01:12;5.60;99.90
33761;DHT22;20084;47.912;19.044;2022-11-14T06:03:40;5.60;99.90
33761;DHT22;20084;47.912;19.044;2022-11-14T06:06:07;5.60;99.90
33761;DHT22;20084;47.912;19.044;2022-11-14T06:08:34;5.50;99.90
33761;DHT22;20084;47.912;19.044;2022-11-14T06:11:11;5.40;99.90
33761;DHT22;20084;47.912;19.044;2022-11-14T06:13:38;5.30;99.90
33761;DHT22;20084;47.912;19.044;2022-11-14T06:16:06;5.30;99.90
33761;DHT22;20084;47.912;19.044;2022-11-14T06:18:33;5.30;99.90
33761;DHT22;20084;47.912;19.044;2022-11-14T06:21:04;5.30;99.90
33761;DHT22;20084;47.912;19.044;2022-11-14T06:23:30;5.30;99.90
33761;DHT22;20084;47.912;19.044;2022-11-14T06:26:04;5.30;99.90
33761;DHT22;20084;47.912;19.044;2022-11-14T06:28:30;5.30;99.90
33761;DHT22;20084;47.912;19.044;2022-11-14T06:31:00;5.20;99.90
33761;DHT22;20084;47.912;19.044;2022-11-14T06:33:27;5.20;99.90
33761;DHT22;20084;47.912;19.044;2022-11-14T06:36:00;5.20;99.90
33761;DHT22;20084;47.912;19.044;2022-11-14T06:38:27;5.20;99.90
33761;DHT22;20084;47.912;19.044;2022-11-14T06:41:01;5.30;99.90
33761;DHT22;20084;47.912;19.044;2022-11-14T06:43:27;5.30;99.90
33761;DHT22;20084;47.912;19.044;2022-11-14T06:45:53;5.30;99.90
33761;DHT22;20084;47.912;19.044;2022-11-14T06:48:20;5.30;99.90
33761;DHT22;20084;47.912;19.044;2022-11-14T06:50:55;5.20;99.90
33761;DHT22;20084;47.912;19.044;2022-11-14T06:53:22;5.20;99.90
33761;DHT22;20084;47.912;19.044;2022-11-14T06:56:02;5.20;99.90
33761;DHT22;20084;47.912;19.044;2022-11-14T06:58:35;5.30;99.90
33761;DHT22;20084;47.912;19.044;2022-11-14T07:01:23;5.30;99.90
33761;DHT22;20084;47.912;19.044;2022-11-14T07:03:50;5.30;99.90
33761;DHT22;20084;47.912;19.044;2022-11-14T07:06:25;5.30;99.90
33761;DHT22;20084;47.912;19.044;2022-11-14T07:08:51;5.30;99.90
33761;DHT22;20084;47.912;19.044;2022-11-14T07:11:19;5.30;99.90
33761;DHT22;20084;47.912;19.044;2022-11-14T07:13:53;5.40;99.90
33761;DHT22;20084;47.912;19.044;2022-11-14T07:16:22;5.40;99.90
33761;DHT22;20084;47.912;19.044;2022-11-14T07:18:48;5.50;99.90
33761;DHT22;20084;47.912;19.044;2022-11-14T07:21:13;5.60;99.90
33761;DHT22;20084;47.912;19.044;2022-11-14T07:23:40;5.60;99.90
33761;DHT22;20084;47.912;19.044;2022-11-14T07:26:08;5.70;99.90
33761;DHT22;20084;47.912;19.044;2022-11-14T07:28:36;5.70;99.90
33761;DHT22;20084;47.912;19.044;2022-11-14T07:31:02;5.60;99.90
33761;DHT22;20084;47.912;19.044;2022-11-14T07:33:29;5.70;99.90
33761;DHT22;20084;47.912;19.044;2022-11-14T07:35:55;5.70;99.90
33761;DHT22;20084;47.912;19.044;2022-11-14T07:38:20;5.70;99.90
33761;DHT22;20084;47.912;19.044;2022-11-14T07:41:00;5.70;99.90
33761;DHT22;20084;47.912;19.044;2022-11-14T07:43:26;5.70;99.90
33761;DHT22;20084;47.912;19.044;2022-11-14T07:45:51;5.70;99.90
33761;DHT22;20084;47.912;19.044;2022-11-14T07:48:17;5.80;99.90
33761;DHT22;20084;47.912;19.044;2022-11-14T07:50:43;5.90;99.90
33761;DHT22;20084;47.912;19.044;2022-11-14T07:53:09;5.90;99.90
33761;DHT22;20084;47.912;19.044;2022-11-14T07:55:35;5.90;99.90
33761;DHT22;20084;47.912;19.044;2022-11-14T07:58:01;5.90;99.90
33761;DHT22;20084;47.912;19.044;2022-11-14T08:00:27;5.90;99.90
33761;DHT22;20084;47.912;19.044;2022-11-14T08:02:52;5.90;99.90
33761;DHT22;20084;47.912;19.044;2022-11-14T08:05:18;5.80;99.90
33761;DHT22;20084;47.912;19.044;2022-11-14T08:07:44;5.70;99.90
33761;DHT22;20084;47.912;19.044;2022-11-14T08:10:10;5.70;99.90
33761;DHT22;20084;47.912;19.044;2022-11-14T08:12:37;5.90;99.90
33761;DHT22;20084;47.912;19.044;2022-11-14T08:15:05;5.90;99.90
33761;DHT22;20084;47.912;19.044;2022-11-14T08:17:31;6.10;99.90
33761;DHT22;20084;47.912;19.044;2022-11-14T08:19:57;6.20;99.90
33761;DHT22;20084;47.912;19.044;2022-11-14T08:22:22;6.20;99.90
33761;DHT22;20084;47.912;19.044;2022-11-14T08:24:48;6.30;99.90
33761;DHT22;20084;47.912;19.044;2022-11-14T08:27:14;6.20;99.90
33761;DHT22;20084;47.912;19.044;2022-11-14T08:29:39;6.20;99.90
33761;DHT22;20084;47.912;19.044;2022-11-14T08:32:05;6.20;99.90
33761;DHT22;20084;47.912;19.044;2022-11-14T08:34:31;6.30;99.90
33761;DHT22;20084;47.912;19.044;2022-11-14T08:36:56;6.40;99.90
33761;DHT22;20084;47.912;19.044;2022-11-14T08:39:22;6.40;99.90
33761;DHT22;20084;47.912;19.044;2022-11-14T08:41:48;6.40;99.90
33761;DHT22;20084;47.912;19.044;2022-11-14T08:44:14;6.50;99.90
33761;DHT22;20084;47.912;19.044;2022-11-14T08:46:39;6.60;99.90
33761;DHT22;20084;47.912;19.044;2022-11-14T08:49:05;6.60;99.90
33761;DHT22;20084;47.912;19.044;2022-11-14T08:51:30;6.60;99.90
33761;DHT22;20084;47.912;19.044;2022-11-14T08:53:56;6.70;99.90
33761;DHT22;20084;47.912;19.044;2022-11-14T08:56:21;6.70;99.90
33761;DHT22;20084;47.912;19.044;2022-11-14T08:58:47;6.80;99.90
33761;DHT22;20084;47.912;19.044;2022-11-14T09:01:13;6.80;99.90
33761;DHT22;20084;47.912;19.044;2022-11-14T09:03:38;6.90;99.90
33761;DHT22;20084;47.912;19.044;2022-11-14T09:06:04;6.90;99.90
33761;DHT22;20084;47.912;19.044;2022-11-14T09:08:30;6.90;99.90
33761;DHT22;20084;47.912;19.044;2022-11-14T09:10:59;7.00;99.90
33761;DHT22;20084;47.912;19.044;2022-11-14T09:13:25;7.10;99.90
33761;DHT22;20084;47.912;19.044;2022-11-14T09:15:52;7.20;99.90
33761;DHT22;20084;47.912;19.044;2022-11-14T09:18:17;7.20;99.90
33761;DHT22;20084;47.912;19.044;2022-11-14T09:20:43;7.30;99.90
33761;DHT22;20084;47.912;19.044;2022-11-14T09:23:09;7.40;99.90
33761;DHT22;20084;47.912;19.044;2022-11-14T09:25:35;7.40;99.90
33761;DHT22;20084;47.912;19.044;2022-11-14T09:28:05;7.40;99.90
33761;DHT22;20084;47.912;19.044;2022-11-14T09:30:32;7.50;99.90
33761;DHT22;20084;47.912;19.044;2022-11-14T09:32:59;7.40;99.90
33761;DHT22;20084;47.912;19.044;2022-11-14T09:35:26;7.50;99.90
33761;DHT22;20084;47.912;19.044;2022-11-14T09:38:06;7.50;99.90
33761;DHT22;20084;47.912;19.044;2022-11-14T09:45:50;7.70;99.90
33761;DHT22;20084;47.912;19.044;2022-11-14T09:48:20;7.80;99.90
33761;DHT22;20084;47.912;19.044;2022-11-14T09:51:08;7.90;99.90
33761;DHT22;20084;47.912;19.044;2022-11-14T09:53:46;8.00;99.90
33761;DHT22;20084;47.912;19.044;2022-11-14T09:56:16;8.10;99.90
33761;DHT22;20084;47.912;19.044;2022-11-14T09:58:43;8.10;99.90
33761;DHT22;20084;47.912;19.044;2022-11-14T10:03:54;8.20;99.90
33761;DHT22;20084;47.912;19.044;2022-11-14T10:06:28;8.30;99.90
33761;DHT22;20084;47.912;19.044;2022-11-14T10:11:37;8.50;99.90
33761;DHT22;20084;47.912;19.044;2022-11-14T10:14:26;8.50;99.90
33761;DHT22;20084;47.912;19.044;2022-11-14T10:17:15;8.60;99.90
33761;DHT22;20084;47.912;19.044;2022-11-14T10:19:58;8.70;99.90
33761;DHT22;20084;47.912;19.044;2022-11-14T10:31:08;8.70;99.90
33761;DHT22;20084;47.912;19.044;2022-11-14T10:36:37;8.90;99.90
33761;DHT22;20084;47.912;19.044;2022-11-14T10:41:36;8.80;99.90
33761;DHT22;20084;47.912;19.044;2022-11-14T10:44:02;9.00;99.90
33761;DHT22;20084;47.912;19.044;2022-11-14T10:46:29;9.00;99.90
33761;DHT22;20084;47.912;19.044;2022-11-14T10:48:58;9.10;99.90
33761;DHT22;20084;47.912;19.044;2022-11-14T10:56:31;9.00;99.90
33761;DHT22;20084;47.912;19.044;2022-11-14T10:58:56;9.10;99.90
33761;DHT22;20084;47.912;19.044;2022-11-14T11:10:02;9.50;99.90
33761;DHT22;20084;47.912;19.044;2022-11-14T11:12:48;9.60;99.90
33761;DHT22;20084;47.912;19.044;2022-11-14T11:15:27;9.70;99.90
33761;DHT22;20084;47.912;19.044;2022-11-14T11:18:02;9.80;99.90
33761;DHT22;20084;47.912;19.044;2022-11-14T11:20:33;9.90;99.90
33761;DHT22;20084;47.912;19.044;2022-11-14T11:25:35;10.00;99.90
33761;DHT22;20084;47.912;19.044;2022-11-14T11:28:13;10.10;99.90
33761;DHT22;20084;47.912;19.044;2022-11-14T11:30:39;10.10;99.90
33761;DHT22;20084;47.912;19.044;2022-11-14T11:33:22;10.10;99.90
33761;DHT22;20084;47.912;19.044;2022-11-14T11:35:49;10.20;99.90
33761;DHT22;20084;47.912;19.044;2022-11-14T11:38:18;10.20;99.90
33761;DHT22;20084;47.912;19.044;2022-11-14T11:40:46;10.20;99.90
33761;DHT22;20084;47.912;19.044;2022-11-14T11:43:22;10.20;99.90
33761;DHT22;20084;47.912;19.044;2022-11-14T11:45:50;10.20;99.90
33761;DHT22;20084;47.912;19.044;2022-11-14T11:48:19;10.30;99.90
33761;DHT22;20084;47.912;19.044;2022-11-14T11:50:45;10.40;99.90
33761;DHT22;20084;47.912;19.044;2022-11-14T11:53:25;10.40;99.90
33761;DHT22;20084;47.912;19.044;2022-11-14T11:56:05;10.40;99.90
33761;DHT22;20084;47.912;19.044;2022-11-14T11:58:49;10.40;99.90
33761;DHT22;20084;47.912;19.044;2022-11-14T12:01:16;10.50;99.90
33761;DHT22;20084;47.912;19.044;2022-11-14T12:03:51;10.60;99.90
33761;DHT22;20084;47.912;19.044;2022-11-14T12:06:22;10.60;99.90
33761;DHT22;20084;47.912;19.044;2022-11-14T12:09:09;10.60;99.90
33761;DHT22;20084;47.912;19.044;2022-11-14T12:11:41;10.70;99.90
33761;DHT22;20084;47.912;19.044;2022-11-14T12:17:59;10.80;99.90
33761;DHT22;20084;47.912;19.044;2022-11-14T12:26:49;10.90;99.90
33761;DHT22;20084;47.912;19.044;2022-11-14T12:29:38;11.10;99.90
33761;DHT22;20084;47.912;19.044;2022-11-14T12:32:14;11.20;99.90
33761;DHT22;20084;47.912;19.044;2022-11-14T12:34:44;11.30;99.90
33761;DHT22;20084;47.912;19.044;2022-11-14T12:37:19;11.20;99.90
33761;DHT22;20084;47.912;19.044;2022-11-14T12:40:06;11.30;99.90
33761;DHT22;20084;47.912;19.044;2022-11-14T12:42:33;11.30;99.90
33761;DHT22;20084;47.912;19.044;2022-11-14T12:44:59;11.30;99.90
33761;DHT22;20084;47.912;19.044;2022-11-14T12:47:26;11.40;99.90
33761;DHT22;20084;47.912;19.044;2022-11-14T13:00:27;11.50;99.90
33761;DHT22;20084;47.912;19.044;2022-11-14T13:06:02;11.60;99.90
33761;DHT22;20084;47.912;19.044;2022-11-14T13:11:40;11.70;99.90
33761;DHT22;20084;47.912;19.044;2022-11-14T13:14:25;11.70;99.90
33761;DHT22;20084;47.912;19.044;2022-11-14T13:17:15;11.80;99.90
33761;DHT22;20084;47.912;19.044;2022-11-14T13:20:29;11.90;99.90
33761;DHT22;20084;47.912;19.044;2022-11-14T13:28:47;12.30;99.90
33761;DHT22;20084;47.912;19.044;2022-11-14T13:33:52;12.80;99.90
33761;DHT22;20084;47.912;19.044;2022-11-14T13:37:42;13.60;99.90
33761;DHT22;20084;47.912;19.044;2022-11-14T13:39:50;14.80;99.90
33761;DHT22;20084;47.912;19.044;2022-11-14T13:42:39;15.90;99.90
33761;DHT22;20084;47.912;19.044;2022-11-14T13:50:47;17.30;99.90
33761;DHT22;20084;47.912;19.044;2022-11-14T13:53:22;17.10;99.90
33761;DHT22;20084;47.912;19.044;2022-11-14T14:18:07;14.60;99.90
33761;DHT22;20084;47.912;19.044;2022-11-14T14:20:46;14.40;99.90
33761;DHT22;20084;47.912;19.044;2022-11-14T14:28:54;13.70;99.90
33761;DHT22;20084;47.912;19.044;2022-11-14T14:31:23;13.60;99.90
33761;DHT22;20084;47.912;19.044;2022-11-14T14:33:51;13.60;99.90
33761;DHT22;20084;47.912;19.044;2022-11-14T14:36:18;13.50;99.90
33761;DHT22;20084;47.912;19.044;2022-11-14T14:38:44;13.40;99.90
33761;DHT22;20084;47.912;19.044;2022-11-14T14:41:12;13.20;99.90
33761;DHT22;20084;47.912;19.044;2022-11-14T14:43:47;13.00;99.90
33761;DHT22;20084;47.912;19.044;2022-11-14T14:46:14;12.90;99.90
33761;DHT22;20084;47.912;19.044;2022-11-14T14:48:41;12.80;99.90
33761;DHT22;20084;47.912;19.044;2022-11-14T14:51:12;12.60;99.90
33761;DHT22;20084;47.912;19.044;2022-11-14T14:53:38;12.30;99.90
33761;DHT22;20084;47.912;19.044;2022-11-14T14:56:06;12.10;99.90
33761;DHT22;20084;47.912;19.044;2022-11-14T14:58:41;11.90;99.90
33761;DHT22;20084;47.912;19.044;2022-11-14T15:01:18;11.80;99.90
33761;DHT22;20084;47.912;19.044;2022-11-14T15:03:52;11.60;99.90
33761;DHT22;20084;47.912;19.044;2022-11-14T15:06:32;11.40;99.90
33761;DHT22;20084;47.912;19.044;2022-11-14T15:11:33;11.20;99.90
33761;DHT22;20084;47.912;19.044;2022-11-14T15:13:59;11.10;99.90
33761;DHT22;20084;47.912;19.044;2022-11-14T15:16:26;11.00;99.90
33761;DHT22;20084;47.912;19.044;2022-11-14T15:18:54;10.70;99.90
33761;DHT22;20084;47.912;19.044;2022-11-14T15:24:01;10.40;99.90
33761;DHT22;20084;47.912;19.044;2022-11-14T15:26:29;10.30;99.90
33761;DHT22;20084;47.912;19.044;2022-11-14T15:29:10;10.20;99.90
33761;DHT22;20084;47.912;19.044;2022-11-14T15:31:51;10.10;99.90
33761;DHT22;20084;47.912;19.044;2022-11-14T15:39:31;9.80;99.90
33761;DHT22;20084;47.912;19.044;2022-11-14T15:44:54;9.60;99.90
33761;DHT22;20084;47.912;19.044;2022-11-14T15:47:39;9.40;99.90
33761;DHT22;20084;47.912;19.044;2022-11-14T15:52:46;9.20;99.90
33761;DHT22;20084;47.912;19.044;2022-11-14T15:55:18;9.00;99.90
33761;DHT22;20084;47.912;19.044;2022-11-14T15:57:44;9.00;99.90
33761;DHT22;20084;47.912;19.044;2022-11-14T16:00:14;8.90;99.90
33761;DHT22;20084;47.912;19.044;2022-11-14T16:02:52;8.80;99.90
33761;DHT22;20084;47.912;19.044;2022-11-14T16:05:23;8.70;99.90
33761;DHT22;20084;47.912;19.044;2022-11-14T16:07:49;8.60;99.90
33761;DHT22;20084;47.912;19.044;2022-11-14T16:10:20;8.50;99.90
33761;DHT22;20084;47.912;19.044;2022-11-14T16:12:45;8.50;99.90
33761;DHT22;20084;47.912;19.044;2022-11-14T16:15:11;8.50;99.90
33761;DHT22;20084;47.912;19.044;2022-11-14T16:17:40;8.50;99.90
33761;DHT22;20084;47.912;19.044;2022-11-14T16:20:12;8.40;99.90
33761;DHT22;20084;47.912;19.044;2022-11-14T16:22:40;8.10;99.90
33761;DHT22;20084;47.912;19.044;2022-11-14T16:25:13;8.00;99.90
33761;DHT22;20084;47.912;19.044;2022-11-14T16:27:40;8.00;99.90
33761;DHT22;20084;47.912;19.044;2022-11-14T16:30:07;8.00;99.90
33761;DHT22;20084;47.912;19.044;2022-11-14T16:32:34;8.00;99.90
33761;DHT22;20084;47.912;19.044;2022-11-14T16:35:00;8.00;99.90
33761;DHT22;20084;47.912;19.044;2022-11-14T16:37:25;8.00;99.90
33761;DHT22;20084;47.912;19.044;2022-11-14T16:39:51;8.00;99.90
33761;DHT22;20084;47.912;19.044;2022-11-14T16:42:16;7.90;99.90
33761;DHT22;20084;47.912;19.044;2022-11-14T16:44:42;7.90;99.90
33761;DHT22;20084;47.912;19.044;2022-11-14T16:47:10;7.90;99.90
33761;DHT22;20084;47.912;19.044;2022-11-14T16:49:37;7.90;99.90
33761;DHT22;20084;47.912;19.044;2022-11-14T16:52:03;7.70;99.90
33761;DHT22;20084;47.912;19.044;2022-11-14T16:54:32;7.50;99.90
33761;DHT22;20084;47.912;19.044;2022-11-14T16:56:58;7.40;99.90
33761;DHT22;20084;47.912;19.044;2022-11-14T16:59:23;7.40;99.90
33761;DHT22;20084;47.912;19.044;2022-11-14T17:01:49;7.40;99.90
33761;DHT22;20084;47.912;19.044;2022-11-14T17:04:15;7.40;99.90
33761;DHT22;20084;47.912;19.044;2022-11-14T17:06:40;7.40;99.90
33761;DHT22;20084;47.912;19.044;2022-11-14T17:09:06;7.40;99.90
33761;DHT22;20084;47.912;19.044;2022-11-14T17:11:32;7.40;99.90
33761;DHT22;20084;47.912;19.044;2022-11-14T17:13:58;7.40;99.90
33761;DHT22;20084;47.912;19.044;2022-11-14T17:16:23;7.30;99.90
33761;DHT22;20084;47.912;19.044;2022-11-14T17:18:53;7.30;99.90
33761;DHT22;20084;47.912;19.044;2022-11-14T17:21:19;7.10;99.90
33761;DHT22;20084;47.912;19.044;2022-11-14T17:23:45;7.10;99.90
33761;DHT22;20084;47.912;19.044;2022-11-14T17:26:12;7.00;99.90
33761;DHT22;20084;47.912;19.044;2022-11-14T17:28:38;7.00;99.90
33761;DHT22;20084;47.912;19.044;2022-11-14T17:31:06;6.80;99.90
33761;DHT22;20084;47.912;19.044;2022-11-14T17:33:33;6.80;99.90
33761;DHT22;20084;47.912;19.044;2022-11-14T17:36:06;6.80;99.90
33761;DHT22;20084;47.912;19.044;2022-11-14T17:38:33;6.80;99.90
33761;DHT22;20084;47.912;19.044;2022-11-14T17:40:59;6.80;99.90
33761;DHT22;20084;47.912;19.044;2022-11-14T17:43:25;6.80;99.90